Other Surface Observations
Issued by NWS Missoula, MT

Home | Current Version | Previous Version | Text Only | Print | Product List | Glossary On
Versions: 1 2 3 4 5 6 7 8 9 10 11 12 13 14 15 16 17 18 19 20 21 22 23 24 25 26 27 28 29 30 31 32 33 34 35 36 37 38 39 40 41 42 43 44 45 46 47 48 49 50
302
SXUS55 KMSO 200603
OSOMSO
MONTANA AWOS SUMMARY
NATIONAL WEATHER SERVICE MISSOULA MT
1203 AM MDT SUN AUG 20 2017

Montana AWOS Reports

LAUREL      |K6S8 200555Z AUTO 34007KT 40SM 19/02 A3002 RMK AO1 T01890022
SCOBEY      |K9S2 200555Z AUTO 00000KT 25SM 10/M02 A3001 RMK AO1 T01001016
EKALAKA     |K97M 200555Z AUTO 00000KT 40SM 18/04 A3001 RMK AO1 T01830044
PLAINS      |KS34 200555Z AUTO 00000KT 40SM 13/03 A3005 RMK AO1 T01280033
TWIN BRIDGES|K7S1 200555Z AUTO 36007KT 15SM 18/M01 A3006 RMK AO1 T01831010




USA.gov is the U.S. government's official web portal to all federal, state and local government web resources and services.